Terminal Aerodrome Forecast
Issued by NWS Wichita, KS

Home | Current Version | Previous Version | Graphics & Text | Print | Product List | Glossary On
Versions: 1 2 3 4 5 6 7 8 9 10 11 12 13 14 15 16 17 18
327
FTUS43 KICT 100523
TAFICT
TAF
KICT 100523Z 1006/1106 VRB05KT P6SM BKN070
     FM101200 20008KT P6SM SCT080
     FM101800 26014KT P6SM SKC
     FM110000 32008KT P6SM FEW250=

USA.gov is the U.S. government's official web portal to all federal, state and local government web resources and services.